createdAt,value
2022-10-03T00:07:06.224Z,1.02
2022-10-03T00:17:15.750Z,2.17
2022-10-03T00:27:30.910Z,1.42
2022-10-03T00:37:37.291Z,2.08
2022-10-03T00:48:07.203Z,2.45
2022-10-03T00:58:31.674Z,1.60
2022-10-03T01:08:56.845Z,1.75
2022-10-03T01:19:07.599Z,2.25
2022-10-03T01:29:33.205Z,1.35
2022-10-03T01:39:43.706Z,1.45
2022-10-03T02:00:01.368Z,1.65
2022-10-03T02:10:13.654Z,2.45
2022-10-03T02:20:33.282Z,1.73
2022-10-03T02:30:52.274Z,1.40
2022-10-03T02:41:18.654Z,1.38
2022-10-03T02:51:53.595Z,1.13
2022-10-03T03:02:25.439Z,1.55
2022-10-03T03:12:59.571Z,1.30
2022-10-03T03:23:18.871Z,1.13
2022-10-03T03:33:29.889Z,1.50
2022-10-03T03:43:55.351Z,1.50
2022-10-03T03:54:26.342Z,1.30
2022-10-03T04:04:46.501Z,2.08
2022-10-03T04:15:12.167Z,1.40
2022-10-03T04:25:33.336Z,1.42
2022-10-03T04:35:57.926Z,1.48
2022-10-03T04:46:19.788Z,1.40
2022-10-03T04:56:45.271Z,1.67
2022-10-03T05:07:02.585Z,1.23
2022-10-03T05:17:17.464Z,1.33
2022-10-03T05:27:33.680Z,2.08
2022-10-03T05:37:58.052Z,1.70
2022-10-03T05:48:15.991Z,1.55
2022-10-03T05:58:55.152Z,1.45
2022-10-03T06:09:29.321Z,1.50
2022-10-03T06:19:46.909Z,1.20
2022-10-03T06:30:12.828Z,2.08
2022-10-03T06:40:47.453Z,1.67
2022-10-03T06:51:21.522Z,1.30
2022-10-03T07:01:51.890Z,1.10
2022-10-03T07:23:13.157Z,1.00
2022-10-03T07:33:47.253Z,2.10
2022-10-03T07:44:17.966Z,1.48
2022-10-03T07:54:45.188Z,1.60
2022-10-03T08:05:12.735Z,1.48
2022-10-03T08:15:27.933Z,1.50
2022-10-03T08:25:44.454Z,1.30
2022-10-03T08:36:14.240Z,1.60
2022-10-03T08:46:40.753Z,1.17
2022-10-03T08:57:17.275Z,1.20
2022-10-03T09:07:40.872Z,1.25
2022-10-03T09:18:27.077Z,1.10
2022-10-03T09:29:07.212Z,1.08
2022-10-03T09:39:45.467Z,1.42
2022-10-03T09:50:30.085Z,0.65
2022-10-03T10:00:51.151Z,0.98
2022-10-03T10:11:21.681Z,0.65
2022-10-03T10:21:54.749Z,0.80
2022-10-03T10:32:39.033Z,1.00
2022-10-03T10:43:18.999Z,0.82
2022-10-03T10:54:12.251Z,0.80
2022-10-03T11:04:42.770Z,0.88
2022-10-03T11:15:36.869Z,0.75
2022-10-03T11:26:18.200Z,0.70
2022-10-03T11:36:57.528Z,0.82
2022-10-03T11:47:19.786Z,0.90
2022-10-03T11:57:34.899Z,0.75
2022-10-03T12:08:02.447Z,1.23
2022-10-03T12:18:20.969Z,1.10
2022-10-03T12:28:27.842Z,1.02
2022-10-03T12:38:50.905Z,0.50
2022-10-03T12:49:00.391Z,1.13
2022-10-03T12:59:15.230Z,1.10
2022-10-03T13:09:42.083Z,1.17
2022-10-03T13:19:55.020Z,0.90
2022-10-03T13:30:06.202Z,0.45
2022-10-03T13:40:17.983Z,1.00
2022-10-03T13:50:26.936Z,0.75
2022-10-03T14:00:36.099Z,0.93
2022-10-03T14:11:03.976Z,0.70
2022-10-03T14:21:42.544Z,0.52
2022-10-03T14:31:57.372Z,0.83
2022-10-03T14:42:22.078Z,0.77
2022-10-03T14:52:37.841Z,1.10
2022-10-03T15:02:47.497Z,0.82
2022-10-03T15:12:57.672Z,0.85
2022-10-03T15:23:02.311Z,0.80
2022-10-03T15:33:15.183Z,0.82
2022-10-03T15:43:31.288Z,1.23
2022-10-03T15:53:37.636Z,1.60
2022-10-03T16:03:47.196Z,0.90
2022-10-03T16:14:03.275Z,1.00
2022-10-03T16:24:08.995Z,1.10
2022-10-03T16:34:17.282Z,1.77
2022-10-03T16:44:22.940Z,1.27
2022-10-03T16:54:29.077Z,1.80
2022-10-03T17:04:36.957Z,4.47
2022-10-03T17:14:44.535Z,3.58
2022-10-03T17:24:52.845Z,4.40
2022-10-03T17:35:01.764Z,4.60
2022-10-03T17:45:30.596Z,3.10
2022-10-03T17:55:38.921Z,3.30
2022-10-03T18:05:46.866Z,4.88
2022-10-03T18:16:19.309Z,5.90
2022-10-03T18:26:28.443Z,12.73
2022-10-03T18:36:38.691Z,10.48
2022-10-03T18:56:48.411Z,11.10
2022-10-03T19:06:54.762Z,10.48
2022-10-03T19:17:15.952Z,7.63
2022-10-03T19:27:20.724Z,6.68
2022-10-03T19:37:41.896Z,6.13
2022-10-03T19:47:56.381Z,6.30
2022-10-03T19:58:03.990Z,5.22
2022-10-03T20:08:21.282Z,5.03
2022-10-03T20:18:30.457Z,5.38
2022-10-03T20:28:52.590Z,4.90
2022-10-03T20:39:12.744Z,4.47
2022-10-03T20:49:26.933Z,6.38
2022-10-03T20:59:42.847Z,7.20
2022-10-03T21:09:50.004Z,7.00
2022-10-03T21:20:00.028Z,7.43
2022-10-03T21:30:06.151Z,6.80
2022-10-03T21:40:22.348Z,5.47
2022-10-03T21:50:29.300Z,4.70
2022-10-03T22:00:55.568Z,3.83
2022-10-03T22:11:09.531Z,4.45
2022-10-03T22:21:24.384Z,4.30
2022-10-03T22:31:33.356Z,4.68
2022-10-03T22:41:38.697Z,3.63
2022-10-03T22:51:43.794Z,3.88
2022-10-03T23:01:50.942Z,3.10
2022-10-03T23:11:56.155Z,3.92
2022-10-03T23:22:01.241Z,3.60
2022-10-03T23:32:05.402Z,3.60
2022-10-03T23:42:15.934Z,3.20
2022-10-03T23:52:25.293Z,4.20
